Time;durP1;ratioP1;P1;durP2;ratioP2;P2;SDS_P1;SDS_P2;PMS_P1;PMS_P2;Temp;Humidity;BMP_temperature;BMP_pressure;BME280_temperature;BME280_humidity;BME280_pressure;Samples;Min_cycle;Max_cycle;Signal;HPM_P1;HPM_P2
2024/02/03 00:02:22;;;;;;;7.00;6.80;;;21.20;51.70;;;;;;5015147;28;20867;-64
2024/02/03 00:04:49;;;;;;;6.67;6.57;;;21.20;51.70;;;;;;5021577;28;20480;-65
2024/02/03 00:07:16;;;;;;;6.77;6.67;;;21.20;51.70;;;;;;5023437;28;20439;-64
2024/02/03 00:09:44;;;;;;;6.70;6.53;;;21.20;51.70;;;;;;5022988;28;20933;-64
2024/02/03 00:12:11;;;;;;;6.50;6.40;;;21.20;51.70;;;;;;5024873;28;20442;-64
2024/02/03 00:14:39;;;;;;;6.70;6.50;;;21.20;51.70;;;;;;5025440;28;20801;-64
2024/02/03 00:17:07;;;;;;;6.37;6.17;;;21.10;51.60;;;;;;5024634;28;20533;-64
2024/02/03 00:19:34;;;;;;;5.90;5.80;;;21.10;51.60;;;;;;5013390;28;20442;-65
2024/02/03 00:22:01;;;;;;;5.87;5.77;;;21.20;51.80;;;;;;5014275;28;20828;-65
2024/02/03 00:24:28;;;;;;;6.20;6.00;;;21.10;51.70;;;;;;5018101;28;20481;-64
2024/02/03 00:26:55;;;;;;;5.90;5.80;;;21.10;51.70;;;;;;5025966;28;20453;-65
2024/02/03 00:29:22;;;;;;;5.90;5.80;;;21.10;51.70;;;;;;5014683;28;20929;-64
2024/02/03 00:31:49;;;;;;;5.70;5.60;;;21.10;51.70;;;;;;5014102;28;20532;-65
2024/02/03 00:34:18;;;;;;;5.63;5.53;;;21.10;51.70;;;;;;5024489;28;20457;-64
2024/02/03 00:36:45;;;;;;;5.97;5.80;;;21.10;51.70;;;;;;5025755;28;21122;-64
2024/02/03 00:39:11;;;;;;;6.00;5.80;;;21.10;51.70;;;;;;5023410;28;20940;-64
2024/02/03 00:41:38;;;;;;;5.83;5.73;;;21.10;51.70;;;;;;5013982;28;20446;-64
2024/02/03 00:44:05;;;;;;;5.77;5.67;;;21.10;51.70;;;;;;5022517;28;20543;-64
2024/02/03 00:46:32;;;;;;;6.10;6.00;;;21.10;51.70;;;;;;5025640;28;20445;-64
2024/02/03 00:48:59;;;;;;;6.47;6.37;;;21.10;51.70;;;;;;5024989;28;20503;-65
2024/02/03 00:51:28;;;;;;;5.53;5.43;;;21.10;51.70;;;;;;5021977;28;20450;-64
2024/02/03 00:53:55;;;;;;;6.10;5.90;;;21.10;51.80;;;;;;5012948;28;20462;-65
2024/02/03 00:56:22;;;;;;;6.33;6.13;;;21.10;51.70;;;;;;5013921;28;20442;-64
2024/02/03 00:58:49;;;;;;;5.83;5.73;;;21.10;51.70;;;;;;5013714;28;20446;-64
2024/02/03 01:01:16;;;;;;;6.10;6.00;;;21.10;51.70;;;;;;5013435;28;20517;-65
2024/02/03 01:03:43;;;;;;;5.70;5.60;;;21.10;51.80;;;;;;5019967;28;20887;-65
2024/02/03 01:06:10;;;;;;;5.80;5.70;;;21.10;51.80;;;;;;5013440;28;20558;-64
2024/02/03 01:08:38;;;;;;;5.63;5.53;;;21.10;51.80;;;;;;5016585;28;20851;-65
2024/02/03 01:11:06;;;;;;;5.90;5.80;;;21.10;51.80;;;;;;5020378;28;20508;-64
2024/02/03 01:13:33;;;;;;;5.90;5.80;;;21.10;51.80;;;;;;5022972;28;20468;-64
2024/02/03 01:16:00;;;;;;;6.70;6.50;;;21.10;51.80;;;;;;5018728;28;20513;-64
2024/02/03 01:18:27;;;;;;;5.97;5.87;;;21.10;51.80;;;;;;5024841;28;20520;-64
2024/02/03 01:20:54;;;;;;;5.80;5.70;;;21.10;51.80;;;;;;5024803;28;20441;-65
2024/02/03 01:23:21;;;;;;;5.70;5.60;;;21.10;51.90;;;;;;5021263;28;20541;-64
2024/02/03 01:25:50;;;;;;;5.80;5.70;;;21.10;51.90;;;;;;5020668;28;20478;-64
2024/02/03 01:28:18;;;;;;;6.23;6.13;;;21.10;51.90;;;;;;5024023;28;20445;-65
2024/02/03 01:30:44;;;;;;;6.23;6.10;;;21.10;51.90;;;;;;5024152;28;20452;-65
2024/02/03 01:33:11;;;;;;;6.10;6.00;;;21.10;52.00;;;;;;5022262;28;20875;-64
2024/02/03 01:35:38;;;;;;;6.17;6.00;;;21.10;51.90;;;;;;5013144;28;20913;-64
2024/02/03 01:38:05;;;;;;;5.60;5.50;;;21.10;51.90;;;;;;5022311;28;20450;-65
2024/02/03 01:40:33;;;;;;;6.00;5.90;;;21.10;51.90;;;;;;5024460;28;20536;-65
2024/02/03 01:43:02;;;;;;;6.00;5.90;;;21.10;51.90;;;;;;5023379;28;20445;-65
2024/02/03 01:45:29;;;;;;;6.07;5.97;;;21.10;51.90;;;;;;5021249;28;21064;-65
2024/02/03 01:47:57;;;;;;;5.87;5.60;;;21.10;51.90;;;;;;5012904;28;20442;-64
2024/02/03 01:50:26;;;;;;;6.20;6.00;;;21.10;51.90;;;;;;5020867;28;21110;-64
2024/02/03 01:52:53;;;;;;;6.27;6.17;;;21.10;51.90;;;;;;5012855;28;20444;-65
2024/02/03 01:55:21;;;;;;;5.97;5.87;;;21.10;51.90;;;;;;5024002;28;20460;-65
2024/02/03 01:57:52;;;;;;;5.90;5.80;;;21.10;51.90;;;;;;5024216;28;20507;-65
2024/02/03 02:00:21;;;;;;;5.70;5.60;;;21.10;51.90;;;;;;5021419;28;20442;-64
2024/02/03 02:02:48;;;;;;;5.63;5.53;;;21.10;52.00;;;;;;5026353;28;20441;-65
2024/02/03 02:05:15;;;;;;;5.53;5.43;;;21.10;52.10;;;;;;5021905;28;20554;-64
2024/02/03 02:07:43;;;;;;;6.07;5.87;;;21.10;52.00;;;;;;5012444;28;20516;-65
2024/02/03 02:10:10;;;;;;;5.73;5.63;;;21.10;52.00;;;;;;5012263;28;20468;-65
2024/02/03 02:12:38;;;;;;;5.50;5.40;;;21.10;52.00;;;;;;5012912;28;21003;-65
2024/02/03 02:15:06;;;;;;;6.30;6.20;;;21.10;52.00;;;;;;5021314;28;20496;-65
2024/02/03 02:17:36;;;;;;;6.30;6.20;;;21.10;52.00;;;;;;5023820;28;20434;-64
2024/02/03 02:20:07;;;;;;;5.60;5.50;;;21.10;52.10;;;;;;5023215;28;20526;-64
2024/02/03 02:22:34;;;;;;;5.70;5.60;;;21.10;52.00;;;;;;5019898;28;20450;-64
2024/02/03 02:25:01;;;;;;;5.60;5.50;;;21.00;52.00;;;;;;5020566;28;20556;-65
2024/02/03 02:27:28;;;;;;;5.47;5.37;;;21.10;52.10;;;;;;5023633;28;20433;-64
2024/02/03 02:29:55;;;;;;;5.70;5.60;;;21.10;52.10;;;;;;5023550;28;20449;-65
2024/02/03 02:32:22;;;;;;;5.70;5.60;;;21.10;52.10;;;;;;5015390;28;20496;-64
2024/02/03 02:34:49;;;;;;;5.70;5.60;;;21.10;52.10;;;;;;5020213;28;20512;-64
2024/02/03 02:37:17;;;;;;;5.87;5.77;;;21.10;52.10;;;;;;5022103;28;20504;-65
2024/02/03 02:39:44;;;;;;;6.00;5.70;;;21.10;52.10;;;;;;5023457;28;20461;-65
2024/02/03 02:42:11;;;;;;;5.80;5.70;;;21.10;52.10;;;;;;5020963;28;20457;-64
2024/02/03 02:44:38;;;;;;;5.60;5.50;;;21.10;52.10;;;;;;5019668;28;20466;-64
2024/02/03 02:47:05;;;;;;;5.80;5.70;;;21.10;52.20;;;;;;5011775;28;20441;-64
2024/02/03 02:49:32;;;;;;;6.20;6.00;;;21.10;52.10;;;;;;5020025;28;20446;-65
2024/02/03 02:51:59;;;;;;;5.90;5.80;;;21.10;52.20;;;;;;5016647;28;20445;-65
2024/02/03 02:54:28;;;;;;;6.00;5.90;;;21.10;52.20;;;;;;5011706;28;20462;-64
2024/02/03 02:56:55;;;;;;;5.70;5.60;;;21.00;52.10;;;;;;5020024;28;20504;-65
2024/02/03 02:59:22;;;;;;;5.60;5.50;;;21.10;52.20;;;;;;5022609;28;20449;-64
2024/02/03 03:01:48;;;;;;;5.90;5.80;;;21.10;52.20;;;;;;5022958;28;20467;-64
2024/02/03 03:04:15;;;;;;;5.90;5.80;;;21.10;52.20;;;;;;5021271;28;20472;-64
2024/02/03 03:06:42;;;;;;;5.47;5.37;;;21.10;52.20;;;;;;5019885;28;20489;-64
2024/02/03 03:09:09;;;;;;;6.30;6.20;;;21.10;52.20;;;;;;5020874;28;20450;-65
2024/02/03 03:11:38;;;;;;;5.70;5.60;;;21.10;52.20;;;;;;5022820;28;20488;-65
2024/02/03 03:14:07;;;;;;;5.70;5.60;;;21.10;52.20;;;;;;5022682;28;20461;-64
2024/02/03 03:16:34;;;;;;;5.87;5.77;;;21.10;52.20;;;;;;5011703;28;20442;-64
2024/02/03 03:19:01;;;;;;;6.20;6.10;;;21.10;52.20;;;;;;5019867;28;20901;-64
2024/02/03 03:21:28;;;;;;;5.93;5.83;;;21.10;52.20;;;;;;5014403;28;20475;-64
2024/02/03 03:23:54;;;;;;;5.90;5.80;;;21.10;52.20;;;;;;5023063;28;20464;-64
2024/02/03 03:26:21;;;;;;;6.00;5.90;;;21.10;52.20;;;;;;5020477;28;20508;-64
2024/02/03 03:28:50;;;;;;;6.00;5.90;;;21.10;52.20;;;;;;5019049;28;20469;-65
2024/02/03 03:31:16;;;;;;;5.80;5.70;;;21.10;52.20;;;;;;5021522;28;20473;-64
2024/02/03 03:33:43;;;;;;;6.03;5.93;;;21.10;52.20;;;;;;5022924;28;20930;-64
2024/02/03 03:36:11;;;;;;;5.93;5.83;;;21.00;52.10;;;;;;5022023;28;20499;-64
2024/02/03 03:38:42;;;;;;;6.00;5.90;;;21.00;52.20;;;;;;5009060;28;20465;-64
2024/02/03 03:41:10;;;;;;;5.87;5.77;;;21.10;52.20;;;;;;5022181;28;21076;-64
2024/02/03 03:43:37;;;;;;;5.90;5.80;;;21.10;52.20;;;;;;5019510;28;20466;-65
2024/02/03 03:46:07;;;;;;;5.90;5.80;;;21.10;52.20;;;;;;5011179;28;20555;-64
2024/02/03 03:48:34;;;;;;;5.70;5.60;;;21.00;52.10;;;;;;5008937;28;20445;-64
2024/02/03 03:51:01;;;;;;;6.13;6.03;;;21.00;52.10;;;;;;5023239;28;20567;-64
2024/02/03 03:53:28;;;;;;;6.00;5.90;;;21.10;52.20;;;;;;5019408;28;20494;-64
2024/02/03 03:55:55;;;;;;;6.33;6.13;;;21.10;52.20;;;;;;5023047;28;20810;-65
2024/02/03 03:58:22;;;;;;;5.50;5.40;;;21.10;52.30;;;;;;5024912;28;20482;-64
2024/02/03 04:00:49;;;;;;;5.63;5.53;;;21.00;52.20;;;;;;5026475;28;20476;-64
2024/02/03 04:03:17;;;;;;;6.43;6.33;;;21.10;52.20;;;;;;5024697;28;20497;-65
2024/02/03 04:05:44;;;;;;;5.60;5.50;;;21.10;52.20;;;;;;5022811;28;20513;-64
2024/02/03 04:08:11;;;;;;;6.10;5.90;;;21.10;52.20;;;;;;5015030;28;20473;-64
2024/02/03 04:10:38;;;;;;;6.00;5.90;;;21.10;52.20;;;;;;5026156;28;20441;-64
2024/02/03 04:13:05;;;;;;;6.00;5.90;;;21.10;52.20;;;;;;5025826;28;20453;-64
2024/02/03 04:15:32;;;;;;;5.67;5.57;;;21.10;52.30;;;;;;5022880;28;20509;-64
2024/02/03 04:17:59;;;;;;;6.10;6.00;;;21.10;52.20;;;;;;5022757;28;20476;-64
2024/02/03 04:20:28;;;;;;;5.60;5.50;;;21.00;52.10;;;;;;5025478;28;20484;-64
2024/02/03 04:22:55;;;;;;;5.40;5.30;;;21.10;52.20;;;;;;5025882;28;20472;-64
2024/02/03 04:25:22;;;;;;;5.33;5.23;;;21.10;52.20;;;;;;5023572;28;20515;-64
2024/02/03 04:27:48;;;;;;;5.40;5.30;;;21.00;52.20;;;;;;5022344;28;20860;-64
2024/02/03 04:30:16;;;;;;;5.53;5.43;;;21.00;52.10;;;;;;5023340;28;20474;-64
2024/02/03 04:32:43;;;;;;;5.60;5.50;;;21.10;52.30;;;;;;5025782;28;20865;-64
2024/02/03 04:35:10;;;;;;;5.43;5.33;;;21.00;52.20;;;;;;5024875;28;20465;-64
2024/02/03 04:37:39;;;;;;;5.50;5.40;;;21.10;52.30;;;;;;5021847;28;20908;-64
2024/02/03 04:40:07;;;;;;;6.03;5.83;;;21.00;52.20;;;;;;5022306;28;20485;-64
2024/02/03 04:42:34;;;;;;;6.23;6.13;;;21.00;52.20;;;;;;5025754;28;20441;-64
2024/02/03 04:45:01;;;;;;;6.33;6.23;;;21.00;52.20;;;;;;5025674;28;20519;-65
2024/02/03 04:47:27;;;;;;;5.90;5.80;;;21.00;52.20;;;;;;5021914;28;20572;-64
2024/02/03 04:49:54;;;;;;;5.50;5.40;;;21.00;52.30;;;;;;5021964;28;20449;-64
2024/02/03 04:52:21;;;;;;;5.90;5.80;;;21.00;52.30;;;;;;5024023;28;20500;-65
2024/02/03 04:54:50;;;;;;;6.17;6.07;;;21.00;52.30;;;;;;5025242;28;20543;-64
2024/02/03 04:57:17;;;;;;;5.80;5.70;;;21.00;52.30;;;;;;5023797;28;20473;-64
2024/02/03 04:59:44;;;;;;;6.20;6.10;;;21.10;52.40;;;;;;5021342;28;20535;-64
2024/02/03 05:02:11;;;;;;;6.20;6.10;;;21.10;52.40;;;;;;5022401;28;20508;-64
2024/02/03 05:04:38;;;;;;;5.90;5.80;;;21.10;52.40;;;;;;5025071;28;20825;-64
2024/02/03 05:07:05;;;;;;;5.90;5.80;;;21.10;52.40;;;;;;5024637;28;20508;-65
2024/02/03 05:09:32;;;;;;;6.40;6.20;;;21.10;52.40;;;;;;5013363;28;20477;-64
2024/02/03 05:12:00;;;;;;;6.10;6.00;;;21.10;52.40;;;;;;5021611;28;20868;-64
2024/02/03 05:14:27;;;;;;;6.50;6.40;;;21.10;52.50;;;;;;5024105;28;20457;-64
2024/02/03 05:16:54;;;;;;;6.00;5.90;;;21.10;52.50;;;;;;5025215;28;20476;-64
2024/02/03 05:19:22;;;;;;;5.93;5.83;;;21.10;52.50;;;;;;5022579;28;20477;-64
2024/02/03 05:21:49;;;;;;;6.03;5.93;;;21.10;52.50;;;;;;5021430;28;20941;-64
2024/02/03 05:24:16;;;;;;;6.17;6.07;;;21.10;52.40;;;;;;5022422;28;20489;-64
2024/02/03 05:26:43;;;;;;;5.50;5.40;;;21.10;52.50;;;;;;5024812;28;20512;-64
2024/02/03 05:29:11;;;;;;;5.70;5.60;;;21.10;52.50;;;;;;5023716;28;20477;-64
2024/02/03 05:31:38;;;;;;;6.37;6.27;;;21.20;52.50;;;;;;5013203;28;20839;-64
2024/02/03 05:34:05;;;;;;;6.90;6.60;;;21.20;52.60;;;;;;5021006;28;20504;-64
2024/02/03 05:36:32;;;;;;;6.77;6.57;;;21.20;52.60;;;;;;5023882;28;20454;-64
2024/02/03 05:38:59;;;;;;;6.53;6.43;;;21.20;52.60;;;;;;5024520;28;20475;-64
2024/02/03 05:41:25;;;;;;;6.37;6.17;;;21.20;52.60;;;;;;5021957;28;20477;-65
2024/02/03 05:43:52;;;;;;;5.90;5.80;;;21.20;52.60;;;;;;5012945;28;20494;-64
2024/02/03 05:46:21;;;;;;;6.30;6.20;;;21.20;52.60;;;;;;5013713;28;20508;-64
2024/02/03 05:48:47;;;;;;;6.63;6.53;;;21.20;52.60;;;;;;5020890;28;20493;-65
2024/02/03 05:51:14;;;;;;;7.90;7.80;;;21.20;52.60;;;;;;5021608;28;20481;-64
2024/02/03 05:53:41;;;;;;;6.60;6.50;;;21.20;52.60;;;;;;5024265;28;21061;-64
2024/02/03 05:56:08;;;;;;;7.33;6.90;;;21.20;52.60;;;;;;5023954;28;20864;-64
2024/02/03 05:58:35;;;;;;;6.60;6.50;;;21.20;52.60;;;;;;5012871;28;20482;-64
2024/02/03 06:01:02;;;;;;;7.20;7.00;;;21.20;52.60;;;;;;5012563;28;20861;-64
2024/02/03 06:03:30;;;;;;;6.60;6.50;;;21.20;52.60;;;;;;5012351;28;20501;-64
2024/02/03 06:05:57;;;;;;;6.30;6.20;;;21.20;52.70;;;;;;5018561;28;20508;-64
2024/02/03 06:08:24;;;;;;;6.50;6.40;;;21.20;52.70;;;;;;5022096;28;20445;-64
2024/02/03 06:10:51;;;;;;;6.57;6.47;;;21.20;52.70;;;;;;5020582;28;20469;-63
2024/02/03 06:13:20;;;;;;;6.03;5.93;;;21.20;52.80;;;;;;5021934;28;20490;-64
2024/02/03 06:15:47;;;;;;;6.47;6.37;;;21.20;52.80;;;;;;5023569;28;20460;-64
2024/02/03 06:18:15;;;;;;;6.33;6.23;;;21.30;52.90;;;;;;5022289;28;20441;-64
2024/02/03 06:20:43;;;;;;;6.00;5.90;;;21.30;53.00;;;;;;5020613;28;20477;-64
2024/02/03 06:23:10;;;;;;;6.77;6.67;;;21.30;53.00;;;;;;5020319;28;20493;-64
2024/02/03 06:25:37;;;;;;;6.30;6.20;;;21.30;53.00;;;;;;5023114;28;20441;-64
2024/02/03 06:28:04;;;;;;;6.73;6.63;;;21.30;53.00;;;;;;5023762;28;20480;-64
2024/02/03 06:30:31;;;;;;;6.40;6.30;;;21.30;53.00;;;;;;5020634;28;20849;-64
2024/02/03 06:32:59;;;;;;;6.40;6.30;;;21.30;53.00;;;;;;5019681;28;20922;-67
2024/02/03 06:35:26;;;;;;;5.70;5.60;;;21.30;53.00;;;;;;5017644;28;20473;-68
2024/02/03 06:37:54;;;;;;;4.72;4.63;;;21.30;53.10;;;;;;5021996;28;20453;-64
2024/02/03 06:40:22;;;;;;;6.47;6.37;;;21.30;53.20;;;;;;5022091;28;20202;-64
2024/02/03 06:42:49;;;;;;;6.70;6.60;;;21.40;53.80;;;;;;5020120;28;20449;-63
2024/02/03 06:45:17;;;;;;;6.80;6.60;;;21.50;53.60;;;;;;5020142;28;20528;-63
2024/02/03 06:47:44;;;;;;;6.83;6.40;;;21.50;53.40;;;;;;5023501;28;20513;-63
2024/02/03 06:50:12;;;;;;;5.73;5.50;;;21.60;53.40;;;;;;5023442;28;21026;-63
2024/02/03 06:52:39;;;;;;;6.70;6.50;;;21.60;53.40;;;;;;5012469;28;20445;-64
2024/02/03 06:55:08;;;;;;;13.63;6.13;;;21.60;53.50;;;;;;5020132;28;20548;-64
2024/02/03 06:57:35;;;;;;;6.07;5.97;;;21.60;53.70;;;;;;5020842;28;20477;-64
2024/02/03 07:00:02;;;;;;;6.40;6.20;;;21.60;53.70;;;;;;5011941;28;20458;-64
2024/02/03 07:02:29;;;;;;;7.17;6.97;;;21.70;53.70;;;;;;5011746;28;20453;-63
2024/02/03 07:04:56;;;;;;;6.60;6.50;;;21.70;53.60;;;;;;5019786;28;20474;-65
2024/02/03 07:07:23;;;;;;;6.97;6.53;;;21.70;53.80;;;;;;5012893;28;20509;-69
2024/02/03 07:09:50;;;;;;;7.00;6.80;;;21.70;54.30;;;;;;5019958;28;20478;-69
2024/02/03 07:12:19;;;;;;;7.40;7.20;;;21.70;54.70;;;;;;5011614;28;20473;-69
2024/02/03 07:14:45;;;;;;;6.97;6.80;;;21.80;54.80;;;;;;5020006;28;20510;-69
2024/02/03 07:17:12;;;;;;;6.83;6.73;;;21.80;55.10;;;;;;5015492;28;20468;-69
2024/02/03 07:19:39;;;;;;;6.77;6.57;;;21.80;54.90;;;;;;5011507;28;20470;-70
2024/02/03 07:22:06;;;;;;;6.87;6.67;;;21.80;55.30;;;;;;5019781;28;20525;-71
2024/02/03 07:24:33;;;;;;;6.90;6.70;;;21.80;55.00;;;;;;5011330;28;20490;-70
2024/02/03 07:27:00;;;;;;;7.30;7.10;;;21.80;54.90;;;;;;5019447;28;20516;-71
2024/02/03 07:29:28;;;;;;;7.17;6.97;;;21.80;54.80;;;;;;5022713;28;20444;-69
2024/02/03 07:32:00;;;;;;;7.43;7.00;;;21.80;54.80;;;;;;5015274;28;20484;-71
2024/02/03 07:34:27;;;;;;;8.03;7.73;;;21.80;54.80;;;;;;5025480;28;20813;-71
2024/02/03 07:36:54;;;;;;;7.80;7.50;;;21.80;54.80;;;;;;5026347;28;20467;-70
2024/02/03 07:39:21;;;;;;;7.40;7.20;;;21.80;54.80;;;;;;5025552;28;20473;-70
2024/02/03 07:41:48;;;;;;;6.87;6.67;;;21.80;54.80;;;;;;5015244;28;20573;-67
2024/02/03 07:44:15;;;;;;;6.90;6.70;;;21.80;54.80;;;;;;5022765;28;20992;-66
2024/02/03 07:46:43;;;;;;;7.40;7.10;;;21.90;55.00;;;;;;5025236;28;20510;-65
2024/02/03 07:49:10;;;;;;;6.53;6.33;;;21.90;55.00;;;;;;5023278;28;20906;-65
2024/02/03 07:51:37;;;;;;;7.07;6.97;;;21.90;54.80;;;;;;5015155;28;20438;-63
2024/02/03 07:54:04;;;;;;;5.45;5.20;;;22.00;55.10;;;;;;5013948;28;20462;-63
2024/02/03 07:56:31;;;;;;;8.00;7.70;;;22.00;55.10;;;;;;5017627;28;20905;-66
2024/02/03 07:58:58;;;;;;;7.67;7.37;;;22.10;55.10;;;;;;5022892;28;20483;-67
2024/02/03 08:01:26;;;;;;;6.87;6.73;;;22.20;55.20;;;;;;5019902;28;20478;-68
2024/02/03 08:03:55;;;;;;;7.20;7.00;;;22.20;55.10;;;;;;5029670;28;20464;-66
2024/02/03 08:06:22;;;;;;;7.10;6.70;;;22.20;54.80;;;;;;5024895;28;20449;-68
2024/02/03 08:08:49;;;;;;;7.00;6.80;;;22.30;55.00;;;;;;5026349;28;20449;-68
2024/02/03 08:11:16;;;;;;;6.80;6.53;;;22.40;55.10;;;;;;5025709;28;20473;-71
2024/02/03 08:13:43;;;;;;;6.83;6.53;;;22.40;54.40;;;;;;5014322;28;20544;-65
2024/02/03 08:16:10;;;;;;;7.83;7.33;;;22.40;54.20;;;;;;5014488;28;20466;-64
2024/02/03 08:18:37;;;;;;;6.90;6.80;;;22.50;54.40;;;;;;5014715;28;20530;-64
2024/02/03 08:21:05;;;;;;;12.90;12.50;;;22.50;54.20;;;;;;5021783;28;20882;-67
2024/02/03 08:23:32;;;;;;;13.37;13.07;;;22.50;54.30;;;;;;5023397;28;20492;-72
2024/02/03 08:25:59;;;;;;;13.60;13.20;;;22.50;54.50;;;;;;5015189;28;20474;-68
2024/02/03 08:28:26;;;;;;;12.00;11.70;;;22.40;54.40;;;;;;5022889;28;20483;-65
2024/02/03 08:30:53;;;;;;;14.23;13.70;;;22.40;54.50;;;;;;5026014;28;20241;-65
2024/02/03 08:33:20;;;;;;;13.83;13.23;;;22.50;54.00;;;;;;5025687;28;20488;-66
2024/02/03 08:35:47;;;;;;;15.67;14.97;;;22.50;53.90;;;;;;5014151;28;20485;-66
2024/02/03 08:38:15;;;;;;;14.23;13.27;;;22.50;53.80;;;;;;5022307;28;20473;-66
2024/02/03 08:40:42;;;;;;;26.17;20.37;;;22.50;53.50;;;;;;5013179;28;20474;-66
2024/02/03 08:43:09;;;;;;;30.33;20.40;;;22.50;53.60;;;;;;5022136;28;20992;-67
2024/02/03 08:45:36;;;;;;;40.83;26.03;;;22.50;53.80;;;;;;5014049;28;20462;-67
2024/02/03 08:48:04;;;;;;;42.50;27.33;;;22.40;54.30;;;;;;5022142;28;20513;-67
2024/02/03 08:50:31;;;;;;;53.20;25.77;;;22.40;54.50;;;;;;5024355;28;20482;-69
2024/02/03 08:52:58;;;;;;;48.23;30.83;;;22.30;54.70;;;;;;5025441;28;20468;-67
2024/02/03 08:55:27;;;;;;;42.93;26.07;;;22.30;54.70;;;;;;5021677;28;20537;-67
2024/02/03 08:57:55;;;;;;;39.03;26.60;;;22.30;54.90;;;;;;5025301;28;20479;-67
2024/02/03 09:00:22;;;;;;;46.77;24.67;;;22.30;55.00;;;;;;5024460;28;20445;-65
2024/02/03 09:02:49;;;;;;;45.73;26.20;;;22.30;55.10;;;;;;5013758;28;20841;-68
2024/02/03 09:05:16;;;;;;;54.73;27.73;;;22.30;55.20;;;;;;5021839;28;20481;-67
2024/02/03 09:07:43;;;;;;;54.40;29.40;;;22.40;55.50;;;;;;5025130;28;20495;-65
2024/02/03 09:10:11;;;;;;;53.70;29.40;;;22.40;55.20;;;;;;5025027;28;20869;-66
2024/02/03 09:12:39;;;;;;;42.40;29.37;;;22.50;55.50;;;;;;5021918;28;21006;-65
2024/02/03 09:15:06;;;;;;;39.27;26.97;;;22.50;55.50;;;;;;5013355;28;20493;-65
2024/02/03 09:17:33;;;;;;;47.20;28.73;;;22.50;55.90;;;;;;5013403;28;20438;-67
2024/02/03 09:20:00;;;;;;;68.77;28.30;;;22.60;57.00;;;;;;5021584;28;20944;-67
2024/02/03 09:22:27;;;;;;;35.63;26.80;;;22.50;57.40;;;;;;5013079;28;20795;-67
2024/02/03 09:24:54;;;;;;;39.80;27.53;;;22.50;57.70;;;;;;5021443;28;20493;-67
2024/02/03 09:27:21;;;;;;;31.40;25.33;;;22.50;57.90;;;;;;5013113;28;20478;-66
2024/02/03 09:29:49;;;;;;;26.33;23.63;;;22.50;57.90;;;;;;5021553;28;20477;-65
2024/02/03 09:32:16;;;;;;;28.93;23.03;;;22.50;58.00;;;;;;5013302;28;20969;-65
2024/02/03 09:34:47;;;;;;;41.97;24.00;;;22.50;57.60;;;;;;5012048;28;20481;-65
2024/02/03 09:37:14;;;;;;;34.67;24.53;;;22.60;57.40;;;;;;5013097;28;20227;-65
2024/02/03 09:39:42;;;;;;;44.67;27.63;;;22.70;57.30;;;;;;5024411;28;20472;-65
2024/02/03 09:42:09;;;;;;;28.90;24.67;;;22.80;57.10;;;;;;5024684;28;20441;-65
2024/02/03 09:44:37;;;;;;;39.63;24.30;;;22.80;57.00;;;;;;5022021;28;20497;-64
2024/02/03 09:47:06;;;;;;;32.13;25.70;;;22.80;57.90;;;;;;5012902;28;20517;-65
2024/02/03 09:49:32;;;;;;;33.97;18.37;;;22.90;59.50;;;;;;5012723;28;20438;-65
2024/02/03 09:52:00;;;;;;;29.20;17.90;;;22.90;61.30;;;;;;5020622;28;20954;-64
2024/02/03 09:54:27;;;;;;;30.53;17.60;;;22.90;62.20;;;;;;5012551;28;20509;-64
2024/02/03 09:56:54;;;;;;;25.00;16.87;;;22.90;62.00;;;;;;5020888;28;20477;-63
2024/02/03 09:59:21;;;;;;;24.07;17.20;;;22.90;61.70;;;;;;5012625;28;20478;-63
2024/02/03 10:01:48;;;;;;;19.70;15.83;;;22.90;62.40;;;;;;5020620;28;20474;-62
2024/02/03 10:04:16;;;;;;;20.57;14.97;;;23.00;61.90;;;;;;5012332;28;20458;-61
2024/02/03 10:06:44;;;;;;;33.27;16.03;;;23.00;61.20;;;;;;5024145;28;20473;-62
2024/02/03 10:09:22;;;;;;;23.17;14.67;;;23.00;60.80;;;;;;5024263;28;20448;-63
2024/02/03 10:11:49;;;;;;;16.40;13.17;;;23.00;60.30;;;;;;5013474;28;20442;-64
2024/02/03 10:14:17;;;;;;;18.97;14.13;;;23.10;60.00;;;;;;5012815;28;20493;-63
2024/02/03 10:16:44;;;;;;;20.13;12.70;;;23.10;59.60;;;;;;5023998;28;20473;-66
2024/02/03 10:19:11;;;;;;;11.63;10.93;;;23.10;59.00;;;;;;5023963;28;20444;-63
2024/02/03 10:21:40;;;;;;;11.43;10.30;;;22.90;56.90;;;;;;5020985;28;20488;-63
2024/02/03 10:24:07;;;;;;;12.40;11.47;;;22.80;56.40;;;;;;5012142;28;20996;-64
2024/02/03 10:26:34;;;;;;;11.90;11.10;;;22.80;58.50;;;;;;5012152;28;20446;-61
2024/02/03 10:29:01;;;;;;;11.13;10.53;;;22.70;56.70;;;;;;5020370;28;20532;-65
2024/02/03 10:31:28;;;;;;;10.93;10.53;;;22.70;56.70;;;;;;5011847;28;20469;-66
2024/02/03 10:33:55;;;;;;;12.07;11.40;;;22.70;56.50;;;;;;5020092;28;20988;-64
2024/02/03 10:36:22;;;;;;;10.00;9.70;;;22.80;56.50;;;;;;5011911;28;20973;-63
2024/02/03 10:38:51;;;;;;;11.43;10.60;;;22.80;56.80;;;;;;5020179;28;20465;-63
2024/02/03 10:41:21;;;;;;;10.47;10.17;;;22.80;56.30;;;;;;5012003;28;20485;-63
2024/02/03 10:43:52;;;;;;;11.20;10.73;;;22.80;56.50;;;;;;5012232;28;20472;-66
2024/02/03 10:46:22;;;;;;;10.30;10.00;;;22.70;56.00;;;;;;5012097;28;20784;-64
2024/02/03 10:48:51;;;;;;;10.80;10.10;;;22.70;55.40;;;;;;5012792;28;20521;-64
2024/02/03 10:51:23;;;;;;;10.53;10.00;;;22.60;55.00;;;;;;5012700;28;20450;-64
2024/02/03 10:53:57;;;;;;;11.10;10.40;;;22.60;54.80;;;;;;5013270;28;20469;-64
2024/02/03 10:56:29;;;;;;;10.50;9.80;;;22.60;55.50;;;;;;5020490;28;20481;-64
2024/02/03 10:58:56;;;;;;;11.67;10.73;;;22.70;55.60;;;;;;5011772;28;20442;-64
2024/02/03 11:01:33;;;;;;;12.33;11.33;;;22.80;55.30;;;;;;5020050;28;20481;-66
2024/02/03 11:04:01;;;;;;;11.93;11.13;;;22.70;55.70;;;;;;5024373;28;20562;-67
2024/02/03 11:06:29;;;;;;;12.47;11.63;;;22.60;57.20;;;;;;5026345;28;20447;-66
2024/02/03 11:09:12;;;;;;;13.37;12.17;;;22.40;57.40;;;;;;5015903;28;20509;-64
2024/02/03 11:11:40;;;;;;;12.00;11.40;;;22.30;57.80;;;;;;5026332;28;20454;-64
2024/02/03 11:14:12;;;;;;;13.17;11.93;;;22.20;57.40;;;;;;5027114;28;20879;-62
2024/02/03 11:16:40;;;;;;;11.10;10.00;;;22.20;56.90;;;;;;5023614;28;20904;-67
2024/02/03 11:19:10;;;;;;;12.13;11.10;;;22.20;57.40;;;;;;5015680;28;20814;-65
2024/02/03 11:21:42;;;;;;;11.90;10.70;;;22.40;57.20;;;;;;5026037;28;20453;-70
2024/02/03 11:24:11;;;;;;;10.00;9.60;;;22.50;57.10;;;;;;5028659;28;20465;-71
2024/02/03 11:26:38;;;;;;;9.40;9.03;;;22.50;56.80;;;;;;5027460;28;20476;-70
2024/02/03 11:29:05;;;;;;;11.27;10.57;;;22.60;56.90;;;;;;5027385;28;21026;-70
2024/02/03 11:31:32;;;;;;;11.40;10.47;;;22.50;56.90;;;;;;5025821;28;20527;-71
2024/02/03 11:33:59;;;;;;;10.97;10.57;;;22.50;56.90;;;;;;5015172;28;20493;-71
2024/02/03 11:36:28;;;;;;;10.07;9.67;;;22.50;57.10;;;;;;5023872;28;20450;-70
2024/02/03 11:38:55;;;;;;;10.23;9.83;;;22.40;57.00;;;;;;5026851;28;20468;-70
2024/02/03 11:41:23;;;;;;;12.40;11.60;;;22.40;57.20;;;;;;5026829;28;20520;-71
2024/02/03 11:43:50;;;;;;;10.30;9.53;;;22.40;57.00;;;;;;5015429;28;20461;-69
2024/02/03 11:46:18;;;;;;;9.37;9.10;;;22.40;57.20;;;;;;5015206;28;20438;-70
2024/02/03 11:48:45;;;;;;;10.80;10.33;;;22.40;57.00;;;;;;5014995;28;20488;-68
2024/02/03 11:51:14;;;;;;;9.60;9.10;;;22.40;56.80;;;;;;5023080;28;20463;-67
2024/02/03 11:53:42;;;;;;;9.50;9.00;;;22.40;57.30;;;;;;5014050;28;20480;-69
2024/02/03 11:56:09;;;;;;;9.53;9.23;;;22.40;56.50;;;;;;5019742;28;20437;-67
2024/02/03 11:58:41;;;;;;;9.53;9.20;;;22.40;56.70;;;;;;5024607;28;20491;-68
2024/02/03 12:01:09;;;;;;;9.40;9.10;;;22.40;56.90;;;;;;5014893;28;20475;-68
2024/02/03 12:03:37;;;;;;;10.27;9.77;;;22.40;56.70;;;;;;5024599;28;20468;-69
2024/02/03 12:06:05;;;;;;;9.40;9.10;;;22.40;56.80;;;;;;5026595;28;20765;-68
2024/02/03 12:08:32;;;;;;;8.18;7.88;;;22.40;56.50;;;;;;5024467;28;20485;-65
2024/02/03 12:10:59;;;;;;;9.03;8.43;;;22.40;56.40;;;;;;5017826;28;20610;-64
2024/02/03 12:13:27;;;;;;;9.50;9.10;;;22.40;56.40;;;;;;5025595;28;20484;-64
2024/02/03 12:15:56;;;;;;;8.73;8.53;;;22.40;56.30;;;;;;5026822;28;20469;-64
2024/02/03 12:18:23;;;;;;;10.87;10.47;;;22.40;56.40;;;;;;5025739;28;20464;-64
2024/02/03 12:20:53;;;;;;;9.87;9.67;;;22.30;56.30;;;;;;5014636;28;20484;-64
2024/02/03 12:23:20;;;;;;;10.03;9.83;;;22.30;56.40;;;;;;5021997;28;20504;-64
2024/02/03 12:25:48;;;;;;;9.10;8.90;;;22.30;56.40;;;;;;5022655;28;20480;-64
2024/02/03 12:28:17;;;;;;;9.13;8.83;;;22.30;56.50;;;;;;5022251;28;20508;-64
2024/02/03 12:30:44;;;;;;;8.33;8.13;;;22.20;56.40;;;;;;5024834;28;20480;-64
2024/02/03 12:33:12;;;;;;;9.03;8.73;;;22.20;56.30;;;;;;5025351;28;20901;-64
2024/02/03 12:35:39;;;;;;;8.80;8.60;;;22.20;56.40;;;;;;5023524;28;20478;-64
2024/02/03 12:38:06;;;;;;;9.00;8.70;;;22.20;56.40;;;;;;5022166;28;20473;-65
2024/02/03 12:40:33;;;;;;;9.20;8.73;;;22.20;56.30;;;;;;5023246;28;20878;-65
2024/02/03 12:43:00;;;;;;;8.30;8.10;;;22.10;56.30;;;;;;5025313;28;20469;-65